Time;durP1;ratioP1;P1;durP2;ratioP2;P2;SDS_P1;SDS_P2;PMS_P1;PMS_P2;Temp;Humidity;BMP_temperature;BMP_pressure;BME280_temperature;BME280_humidity;BME280_pressure;Samples;Min_cycle;Max_cycle;Signal;HPM_P1;HPM_P2
2023/03/29 00:01:57;;;;;;;11.90;5.93;;;2.40;99.90;;;;;;4975884;28;20027;-72
2023/03/29 00:04:26;;;;;;;9.23;5.20;;;2.40;99.90;;;;;;4975581;28;20030;-75
2023/03/29 00:06:55;;;;;;;10.73;4.95;;;2.40;99.90;;;;;;4975516;28;20475;-72
2023/03/29 00:09:22;;;;;;;7.53;4.18;;;2.40;99.90;;;;;;4975401;28;20031;-75
2023/03/29 00:11:48;;;;;;;9.77;4.88;;;2.40;99.90;;;;;;4973897;28;20043;-75
2023/03/29 00:14:14;;;;;;;9.88;4.25;;;2.40;99.90;;;;;;4977028;28;20034;-74
2023/03/29 00:16:39;;;;;;;9.55;4.60;;;2.40;99.90;;;;;;4976784;28;20031;-75
2023/03/29 00:19:05;;;;;;;9.95;4.35;;;2.40;99.90;;;;;;4975299;28;20059;-75
2023/03/29 00:21:31;;;;;;;12.18;5.00;;;2.40;99.90;;;;;;4975030;28;20482;-75
2023/03/29 00:23:57;;;;;;;9.55;4.43;;;2.40;99.90;;;;;;4976315;28;20475;-76
2023/03/29 00:26:23;;;;;;;13.80;5.22;;;2.40;99.90;;;;;;4983631;28;20073;-74
2023/03/29 00:28:49;;;;;;;9.32;4.32;;;2.50;99.90;;;;;;4975187;28;20043;-76
2023/03/29 00:31:17;;;;;;;12.95;4.82;;;2.50;99.90;;;;;;4973611;28;20435;-73
2023/03/29 00:33:44;;;;;;;7.47;3.53;;;2.50;99.90;;;;;;4974977;28;20023;-75
2023/03/29 00:36:11;;;;;;;9.77;4.20;;;2.50;99.90;;;;;;4974216;28;20078;-75
2023/03/29 00:38:38;;;;;;;9.10;4.20;;;2.50;99.90;;;;;;4974847;28;20105;-74
2023/03/29 00:41:05;;;;;;;8.32;4.10;;;2.40;99.90;;;;;;4974016;28;20050;-75
2023/03/29 00:44:00;;;;;;;8.50;3.92;;;2.40;99.90;;;;;;4973410;28;20073;-74
2023/03/29 00:46:28;;;;;;;7.80;3.85;;;2.30;99.90;;;;;;4957375;28;20146;-74
2023/03/29 00:49:00;;;;;;;7.85;4.32;;;2.30;99.90;;;;;;4973415;28;20129;-75
2023/03/29 00:51:28;;;;;;;8.53;3.73;;;2.30;99.90;;;;;;4974632;28;20098;-76
2023/03/29 00:54:00;;;;;;;7.25;3.92;;;2.30;99.90;;;;;;4957238;28;20049;-75
2023/03/29 00:56:32;;;;;;;8.60;3.60;;;2.30;99.90;;;;;;4974151;28;20525;-73
2023/03/29 00:59:09;;;;;;;8.97;4.00;;;2.30;99.90;;;;;;4957433;28;20486;-75
2023/03/29 01:01:58;;;;;;;11.15;4.82;;;2.30;99.90;;;;;;4973414;28;20059;-73
2023/03/29 01:04:35;;;;;;;11.93;4.68;;;2.20;99.90;;;;;;4974372;28;20033;-73
2023/03/29 01:07:20;;;;;;;12.05;4.72;;;2.10;99.90;;;;;;4957123;28;20031;-74
2023/03/29 01:09:54;;;;;;;10.63;5.05;;;2.10;99.90;;;;;;4945901;28;20039;-76
2023/03/29 01:12:24;;;;;;;9.82;4.85;;;2.10;99.90;;;;;;4974428;28;20031;-73
2023/03/29 01:15:16;;;;;;;8.23;4.53;;;1.90;99.90;;;;;;4972977;28;20023;-75
2023/03/29 01:17:49;;;;;;;;;;;1.90;99.90;;;;;;4973774;28;20031;-73
2023/03/29 01:20:23;;;;;;;12.05;4.32;;;1.90;99.90;;;;;;4974120;28;19980;-74
2023/03/29 01:22:55;;;;;;;8.77;4.30;;;1.80;99.90;;;;;;4974118;28;20058;-76
2023/03/29 01:25:58;;;;;;;10.57;5.18;;;1.80;99.90;;;;;;4974031;28;20031;-76
2023/03/29 01:28:32;;;;;;;9.00;4.37;;;1.80;99.90;;;;;;4972797;28;20483;-75
2023/03/29 01:31:10;;;;;;;6.82;4.10;;;1.70;99.90;;;;;;4973822;28;20033;-72
2023/03/29 01:33:42;;;;;;;9.50;4.32;;;1.70;99.90;;;;;;4973972;28;20037;-77
2023/03/29 01:36:23;;;;;;;11.40;4.68;;;1.70;99.90;;;;;;4974167;28;20376;-72
2023/03/29 01:39:02;;;;;;;7.43;4.28;;;1.70;99.90;;;;;;4962189;28;20034;-75
2023/03/29 01:42:05;;;;;;;11.32;4.35;;;1.70;99.90;;;;;;4973700;28;20038;-73
2023/03/29 01:44:51;;;;;;;8.43;4.25;;;1.70;99.90;;;;;;4956127;28;20117;-76
2023/03/29 01:47:17;;;;;;;8.70;4.50;;;1.70;99.90;;;;;;4972657;28;20126;-75
2023/03/29 01:49:55;;;;;;;10.50;4.38;;;1.60;99.90;;;;;;4973100;28;20034;-76
2023/03/29 01:52:30;;;;;;;10.60;4.68;;;1.60;99.90;;;;;;4973920;28;20023;-76
2023/03/29 01:55:02;;;;;;;9.02;4.40;;;1.50;99.90;;;;;;4956214;28;20081;-75
2023/03/29 01:57:31;;;;;;;10.25;4.72;;;1.50;99.90;;;;;;4956208;28;20062;-75
2023/03/29 01:59:59;;;;;;;6.47;3.95;;;1.50;99.90;;;;;;4972651;28;20035;-76
2023/03/29 02:02:27;;;;;;;7.65;3.95;;;1.50;99.90;;;;;;4971968;28;20034;-76
2023/03/29 02:04:54;;;;;;;8.25;4.50;;;1.50;99.90;;;;;;4973585;28;20027;-77
2023/03/29 02:07:29;;;;;;;9.98;3.95;;;1.50;99.90;;;;;;4973164;28;20027;-76
2023/03/29 02:09:57;;;;;;;9.13;4.47;;;1.50;99.90;;;;;;4972894;28;20030;-75
2023/03/29 02:12:22;;;;;;;8.95;4.45;;;1.40;99.90;;;;;;4973348;28;20027;-76
2023/03/29 02:14:49;;;;;;;15.00;4.68;;;1.40;99.90;;;;;;4967231;28;20035;-75
2023/03/29 02:17:21;;;;;;;12.50;4.65;;;1.40;99.90;;;;;;4962457;28;20034;-76
2023/03/29 02:20:03;;;;;;;12.07;5.03;;;1.30;99.90;;;;;;4955742;28;20113;-75
2023/03/29 02:22:38;;;;;;;11.68;5.47;;;1.30;99.90;;;;;;4960383;28;20050;-75
2023/03/29 02:25:08;;;;;;;12.30;5.32;;;1.30;99.90;;;;;;4969353;28;20023;-75
2023/03/29 02:27:36;;;;;;;10.13;5.28;;;1.30;99.90;;;;;;4966122;28;20122;-75
2023/03/29 02:30:05;;;;;;;13.40;5.00;;;1.30;99.90;;;;;;4943335;28;20054;-75
2023/03/29 02:32:40;;;;;;;8.23;4.53;;;1.30;99.90;;;;;;4964221;28;20058;-75
2023/03/29 02:35:12;;;;;;;8.98;4.65;;;1.30;99.90;;;;;;4942817;28;20054;-75
2023/03/29 02:37:41;;;;;;;11.93;4.65;;;1.30;99.90;;;;;;4946557;28;20027;-76
2023/03/29 02:40:11;;;;;;;9.88;4.85;;;1.30;99.90;;;;;;4963463;28;20023;-72
2023/03/29 02:42:40;;;;;;;9.93;5.03;;;1.30;99.90;;;;;;4951608;28;20041;-75
2023/03/29 02:45:09;;;;;;;9.25;4.75;;;1.30;99.90;;;;;;4970857;28;20038;-76
2023/03/29 02:47:40;;;;;;;9.40;4.38;;;1.30;99.90;;;;;;4954951;28;20043;-76
2023/03/29 02:50:07;;;;;;;12.73;4.20;;;1.30;99.90;;;;;;4974422;28;20046;-75
2023/03/29 02:52:38;;;;;;;8.10;4.53;;;1.30;99.90;;;;;;4959875;28;20089;-74
2023/03/29 02:55:08;;;;;;;8.05;4.30;;;1.30;99.90;;;;;;4976777;28;20023;-74
2023/03/29 02:57:37;;;;;;;9.95;5.15;;;1.20;99.90;;;;;;4975218;28;20442;-74
2023/03/29 03:00:04;;;;;;;10.77;4.82;;;1.20;99.90;;;;;;4976956;28;20022;-74
2023/03/29 03:02:30;;;;;;;9.75;4.72;;;1.20;99.90;;;;;;4959163;28;20098;-75
2023/03/29 03:04:56;;;;;;;8.27;4.10;;;1.20;99.90;;;;;;4959049;28;20031;-75
2023/03/29 03:07:23;;;;;;;10.23;4.80;;;1.20;99.90;;;;;;4975419;28;20475;-75
2023/03/29 03:09:49;;;;;;;7.10;4.38;;;1.20;99.90;;;;;;4958856;28;20030;-75
2023/03/29 03:12:15;;;;;;;8.90;4.90;;;1.30;99.90;;;;;;4975187;28;20383;-74
2023/03/29 03:14:42;;;;;;;8.85;4.68;;;1.30;99.90;;;;;;4974623;28;20114;-72
2023/03/29 03:17:07;;;;;;;9.32;4.63;;;1.30;99.90;;;;;;4975054;28;20085;-72
2023/03/29 03:19:33;;;;;;;7.78;4.10;;;1.30;99.90;;;;;;4975035;28;20027;-74
2023/03/29 03:21:59;;;;;;;9.63;4.90;;;1.40;99.90;;;;;;4974397;28;20463;-75
2023/03/29 03:24:26;;;;;;;7.75;4.00;;;1.40;99.90;;;;;;4974674;28;20034;-74
2023/03/29 03:26:53;;;;;;;9.52;4.50;;;1.40;99.90;;;;;;4958451;28;20031;-75
2023/03/29 03:29:19;;;;;;;8.52;4.35;;;1.40;99.90;;;;;;4976382;28;20101;-76
2023/03/29 03:32:12;;;;;;;9.98;4.13;;;1.30;99.90;;;;;;4959702;28;20085;-75
2023/03/29 03:35:10;;;;;;;11.02;4.88;;;1.30;99.90;;;;;;4956507;28;20382;-75
2023/03/29 03:37:37;;;;;;;8.68;4.13;;;1.40;99.90;;;;;;4976103;28;20077;-74
2023/03/29 03:40:10;;;;;;;10.18;4.63;;;1.40;99.90;;;;;;4956688;28;20114;-73
2023/03/29 03:42:38;;;;;;;11.70;5.20;;;1.50;99.90;;;;;;4971406;28;20047;-74
2023/03/29 03:45:05;;;;;;;11.40;5.65;;;1.50;99.90;;;;;;4956438;28;20035;-74
2023/03/29 03:47:46;;;;;;;11.32;5.32;;;1.60;99.90;;;;;;4972633;28;20159;-73
2023/03/29 03:50:23;;;;;;;10.55;5.22;;;1.70;99.90;;;;;;4947299;28;20451;-75
2023/03/29 03:52:49;;;;;;;11.95;5.25;;;1.70;99.90;;;;;;4957638;28;20023;-74
2023/03/29 03:55:15;;;;;;;9.02;4.43;;;1.80;99.90;;;;;;4974124;28;20111;-72
2023/03/29 03:58:00;;;;;;;6.25;3.92;;;1.80;99.90;;;;;;4974360;28;20031;-73
2023/03/29 04:00:26;;;;;;;8.35;4.18;;;1.80;99.90;;;;;;4957866;28;20387;-75
2023/03/29 04:03:08;;;;;;;8.27;4.28;;;1.80;99.90;;;;;;4957176;28;20051;-75
2023/03/29 04:05:40;;;;;;;8.98;4.40;;;1.80;99.90;;;;;;4954534;29;20027;-75
2023/03/29 04:08:06;;;;;;;19.75;4.50;;;1.80;99.90;;;;;;4954498;29;20061;-75
2023/03/29 04:10:54;;;;;;;9.38;4.72;;;1.80;99.90;;;;;;4974293;28;20134;-73
2023/03/29 04:13:26;;;;;;;19.13;5.65;;;1.70;99.90;;;;;;4974326;28;20083;-74
2023/03/29 04:16:12;;;;;;;12.60;5.25;;;1.70;99.90;;;;;;4961903;28;20038;-75
2023/03/29 04:18:38;;;;;;;11.13;5.22;;;1.70;99.90;;;;;;4971468;28;20067;-73
2023/03/29 04:21:04;;;;;;;11.65;5.43;;;1.70;99.90;;;;;;4954762;28;20114;-75
2023/03/29 04:23:34;;;;;;;14.95;5.03;;;1.70;99.90;;;;;;4974026;28;20104;-76
2023/03/29 04:26:00;;;;;;;11.43;5.32;;;1.80;99.90;;;;;;4956118;28;20035;-74
2023/03/29 04:28:41;;;;;;;15.13;7.75;;;1.70;99.90;;;;;;4956936;28;20038;-72
2023/03/29 04:31:13;;;;;;;15.85;8.95;;;1.70;99.90;;;;;;4973743;28;20050;-74
2023/03/29 04:34:17;;;;;;;18.60;10.23;;;1.70;99.90;;;;;;4953076;28;20148;-74
2023/03/29 04:36:44;;;;;;;17.52;9.45;;;1.70;99.90;;;;;;4946158;29;20099;-72
2023/03/29 04:39:17;;;;;;;21.67;12.10;;;1.80;99.90;;;;;;4943846;28;20035;-74
2023/03/29 04:41:46;;;;;;;17.08;10.55;;;1.90;99.90;;;;;;4956751;28;20046;-73
2023/03/29 04:44:20;;;;;;;24.38;15.70;;;2.10;99.90;;;;;;4956223;28;20482;-72
2023/03/29 04:46:46;;;;;;;30.08;18.08;;;2.60;99.90;;;;;;4953177;29;20039;-73
2023/03/29 04:49:23;;;;;;;27.48;15.93;;;3.30;99.90;;;;;;4952734;29;20083;-72
2023/03/29 04:51:52;;;;;;;17.55;9.65;;;4.00;99.90;;;;;;4953391;29;20044;-73
2023/03/29 04:54:20;;;;;;;14.27;8.80;;;4.20;99.90;;;;;;4950492;28;20033;-72
2023/03/29 04:57:04;;;;;;;14.82;9.13;;;4.80;99.90;;;;;;4966652;28;20074;-74
2023/03/29 04:59:38;;;;;;;18.52;9.93;;;5.20;98.50;;;;;;4967604;28;20039;-71
2023/03/29 05:02:16;;;;;;;18.02;9.15;;;5.70;97.00;;;;;;4941350;29;20581;-74
2023/03/29 05:04:45;;;;;;;15.60;8.35;;;5.80;95.70;;;;;;4949721;28;20038;-74
2023/03/29 05:07:16;;;;;;;17.98;9.27;;;6.10;95.10;;;;;;4956866;28;20054;-73
2023/03/29 05:09:43;;;;;;;21.75;12.30;;;6.70;94.10;;;;;;4965061;28;20058;-74
2023/03/29 05:12:10;;;;;;;25.73;12.88;;;7.10;92.50;;;;;;4954371;28;20066;-73
2023/03/29 05:14:51;;;;;;;19.05;10.95;;;7.50;92.40;;;;;;4973068;28;20034;-73
2023/03/29 05:17:17;;;;;;;18.40;10.77;;;8.10;90.50;;;;;;4956541;28;20597;-73
2023/03/29 05:19:44;;;;;;;18.58;10.23;;;8.00;89.90;;;;;;4956400;28;20117;-73
2023/03/29 05:22:10;;;;;;;15.57;8.45;;;8.20;88.10;;;;;;4946334;28;20080;-74
2023/03/29 05:24:36;;;;;;;17.98;8.43;;;9.20;87.90;;;;;;4972521;28;20031;-74
2023/03/29 05:27:09;;;;;;;;;;;9.30;86.00;;;;;;4971542;28;20047;-74
2023/03/29 05:29:36;;;;;;;16.63;7.95;;;10.00;85.80;;;;;;4972809;28;19940;-72
2023/03/29 05:32:36;;;;;;;15.52;8.55;;;10.70;82.00;;;;;;4914803;29;20524;-73
2023/03/29 05:35:04;;;;;;;16.23;9.15;;;10.90;81.60;;;;;;4914165;29;20052;-72
2023/03/29 05:37:35;;;;;;;12.95;7.22;;;10.60;80.40;;;;;;4898481;29;20409;-73
2023/03/29 05:40:08;;;;;;;19.58;8.25;;;9.80;80.40;;;;;;4898349;29;20055;-74
2023/03/29 05:43:13;;;;;;;17.98;7.63;;;9.10;81.30;;;;;;4818064;29;20057;-71
2023/03/29 05:45:39;;;;;;;13.07;5.45;;;7.90;83.90;;;;;;4821510;29;20074;-73
2023/03/29 05:48:05;;;;;;;12.57;5.55;;;7.20;85.10;;;;;;4821358;29;20058;-70
2023/03/29 05:50:32;;;;;;;12.65;6.10;;;6.80;86.10;;;;;;4805922;29;20110;-73
2023/03/29 05:52:58;;;;;;;10.85;5.47;;;6.30;87.50;;;;;;4821422;29;20085;-71
2023/03/29 05:55:24;;;;;;;18.33;7.20;;;6.10;89.70;;;;;;4805635;29;20447;-74
2023/03/29 05:57:51;;;;;;;20.52;7.82;;;5.90;90.30;;;;;;4821048;29;20030;-75
2023/03/29 06:00:22;;;;;;;15.93;6.93;;;5.90;90.80;;;;;;4821389;29;20125;-74
2023/03/29 06:02:55;;;;;;;19.65;8.85;;;5.80;90.90;;;;;;4805923;29;20046;-75
2023/03/29 06:05:22;;;;;;;15.77;7.15;;;5.90;91.70;;;;;;4806320;29;20090;-74
2023/03/29 06:07:59;;;;;;;14.65;7.15;;;6.10;91.60;;;;;;4829018;29;20045;-74
2023/03/29 06:10:44;;;;;;;14.43;6.50;;;6.00;90.70;;;;;;4876273;29;20044;-75
2023/03/29 06:13:26;;;;;;;16.73;6.43;;;5.90;91.00;;;;;;4894618;28;20114;-73
2023/03/29 06:15:53;;;;;;;11.13;5.65;;;6.00;91.60;;;;;;4966482;28;20103;-74
2023/03/29 06:18:19;;;;;;;12.10;5.18;;;6.10;91.30;;;;;;4954536;28;20054;-74
2023/03/29 06:20:50;;;;;;;27.98;5.82;;;6.20;91.10;;;;;;4955433;28;20686;-74
2023/03/29 06:23:19;;;;;;;12.90;5.47;;;6.40;91.20;;;;;;4954529;28;20113;-74
2023/03/29 06:25:45;;;;;;;14.02;5.40;;;6.30;90.80;;;;;;4954960;28;20430;-73
2023/03/29 06:28:13;;;;;;;12.15;5.32;;;6.50;90.90;;;;;;4955825;28;20034;-74
2023/03/29 06:30:40;;;;;;;11.55;4.57;;;6.50;90.70;;;;;;4950774;28;20081;-74
2023/03/29 06:33:07;;;;;;;11.95;5.70;;;6.60;91.00;;;;;;4971890;28;20482;-74
2023/03/29 06:35:54;;;;;;;16.88;7.85;;;6.80;90.40;;;;;;4969678;28;20031;-74
2023/03/29 06:38:27;;;;;;;16.52;7.72;;;7.10;90.90;;;;;;4955696;28;20498;-74
2023/03/29 06:41:22;;;;;;;13.68;6.53;;;7.00;90.90;;;;;;4943297;29;20058;-74
2023/03/29 06:44:07;;;;;;;9.57;4.45;;;7.10;89.20;;;;;;4934763;29;20039;-74
2023/03/29 06:46:48;;;;;;;15.27;6.70;;;6.90;88.90;;;;;;4929301;29;20061;-74
2023/03/29 06:49:14;;;;;;;11.90;5.55;;;7.20;87.90;;;;;;4927550;29;20040;-74
2023/03/29 06:51:56;;;;;;;9.35;4.75;;;7.30;87.40;;;;;;4938577;29;20046;-74
2023/03/29 06:54:22;;;;;;;9.50;4.63;;;7.30;87.50;;;;;;4916726;29;20028;-72
2023/03/29 06:56:58;;;;;;;9.45;4.15;;;7.40;88.00;;;;;;4916582;29;20058;-73
2023/03/29 06:59:26;;;;;;;11.45;3.83;;;7.50;87.60;;;;;;4916795;29;20096;-74
2023/03/29 07:02:10;;;;;;;6.45;2.88;;;7.40;84.70;;;;;;4932377;29;20062;-73
2023/03/29 07:05:05;;;;;;;7.53;3.85;;;7.70;84.80;;;;;;4943731;29;20163;-75
2023/03/29 07:10:44;;;;;;;6.93;3.22;;;7.90;86.00;;;;;;4927174;29;20530;-73
2023/03/29 07:13:41;;;;;;;8.43;3.97;;;7.90;84.50;;;;;;4934851;29;20032;-73
2023/03/29 07:16:11;;;;;;;7.32;3.70;;;8.00;85.20;;;;;;4935609;29;20510;-74
2023/03/29 07:19:03;;;;;;;9.23;3.78;;;7.90;85.90;;;;;;4932689;28;20069;-75
2023/03/29 07:21:49;;;;;;;6.82;4.03;;;8.10;85.20;;;;;;4972921;28;20042;-74
2023/03/29 07:24:15;;;;;;;8.63;3.20;;;8.20;83.70;;;;;;4971198;28;20034;-74
2023/03/29 07:26:41;;;;;;;7.38;3.15;;;8.40;84.40;;;;;;4955290;28;20118;-73
2023/03/29 07:29:10;;;;;;;6.75;3.05;;;8.40;82.30;;;;;;4967801;28;20129;-74
2023/03/29 07:31:39;;;;;;;7.88;3.83;;;8.50;81.10;;;;;;4954931;28;20069;-75
2023/03/29 07:34:34;;;;;;;7.40;3.53;;;8.60;81.40;;;;;;4972305;28;20046;-72
2023/03/29 07:37:00;;;;;;;5.72;2.55;;;8.80;81.30;;;;;;4971183;28;20529;-72
2023/03/29 07:39:26;;;;;;;6.45;2.72;;;8.70;79.60;;;;;;4958436;28;20486;-73
2023/03/29 07:42:21;;;;;;;6.15;2.90;;;8.70;78.20;;;;;;4929390;29;20094;-75
2023/03/29 07:44:47;;;;;;;4.53;2.45;;;9.00;79.10;;;;;;4918907;29;20028;-73
2023/03/29 07:47:14;;;;;;;3.95;2.20;;;8.90;77.70;;;;;;4935244;29;20130;-72
2023/03/29 07:49:43;;;;;;;4.13;2.67;;;8.90;78.50;;;;;;4919622;29;20046;-73
2023/03/29 07:52:09;;;;;;;7.13;2.45;;;9.00;75.40;;;;;;4919191;29;20036;-76
2023/03/29 07:54:35;;;;;;;3.50;2.30;;;9.00;73.80;;;;;;4918564;29;20040;-74
2023/03/29 07:57:25;;;;;;;6.63;2.53;;;9.00;76.90;;;;;;4928103;29;20063;-73
2023/03/29 07:59:53;;;;;;;5.60;2.40;;;9.20;75.80;;;;;;4920278;29;20036;-73
2023/03/29 08:02:24;;;;;;;8.93;2.70;;;9.10;73.90;;;;;;4919027;29;20024;-72
2023/03/29 08:04:55;;;;;;;4.65;2.70;;;9.10;74.70;;;;;;4934483;29;20031;-74
2023/03/29 08:07:41;;;;;;;10.88;3.95;;;9.20;73.00;;;;;;4918817;29;20090;-72
2023/03/29 08:10:18;;;;;;;9.40;3.50;;;9.10;73.50;;;;;;4935393;29;20039;-73
2023/03/29 08:13:16;;;;;;;5.63;3.17;;;9.10;73.70;;;;;;4924756;29;20071;-72
2023/03/29 08:16:14;;;;;;;6.28;3.20;;;9.20;74.00;;;;;;4934660;29;20050;-73
2023/03/29 08:18:48;;;;;;;6.70;2.75;;;9.30;73.50;;;;;;4937348;28;20039;-73
2023/03/29 08:21:14;;;;;;;12.45;4.75;;;9.30;73.60;;;;;;4958105;28;20499;-73
2023/03/29 08:23:43;;;;;;;7.47;3.50;;;9.20;73.60;;;;;;4973925;28;20062;-73
2023/03/29 08:26:14;;;;;;;8.20;3.85;;;9.20;74.30;;;;;;4957391;28;20019;-73
2023/03/29 08:28:42;;;;;;;9.40;4.57;;;9.40;77.10;;;;;;4971199;28;20071;-74
2023/03/29 08:31:09;;;;;;;5.60;2.22;;;9.40;74.30;;;;;;4954111;29;20390;-73
2023/03/29 08:33:38;;;;;;;11.85;4.47;;;9.40;72.10;;;;;;4954507;28;20029;-73
2023/03/29 08:36:22;;;;;;;9.77;4.18;;;9.60;74.30;;;;;;4974281;28;20089;-73
2023/03/29 08:38:52;;;;;;;4.30;2.58;;;9.80;72.50;;;;;;4956246;28;20410;-73
2023/03/29 08:41:45;;;;;;;6.15;2.50;;;9.60;70.20;;;;;;4953765;28;20051;-73
2023/03/29 08:44:35;;;;;;;8.10;2.55;;;9.60;64.60;;;;;;4965494;28;20057;-71
2023/03/29 08:47:28;;;;;;;4.30;2.00;;;9.40;69.90;;;;;;4967199;28;20082;-73
2023/03/29 08:49:56;;;;;;;6.03;2.38;;;9.70;69.80;;;;;;4955737;28;20046;-74
2023/03/29 08:52:37;;;;;;;7.07;2.85;;;9.60;67.50;;;;;;4951257;28;20387;-74
2023/03/29 08:55:28;;;;;;;9.02;3.55;;;9.50;69.10;;;;;;4946835;28;20367;-73
2023/03/29 08:58:36;;;;;;;4.57;2.85;;;9.60;69.30;;;;;;4953357;29;20046;-74
2023/03/29 09:01:07;;;;;;;6.97;2.60;;;9.80;67.60;;;;;;4937158;29;20603;-72
2023/03/29 09:03:47;;;;;;;4.30;2.28;;;9.80;67.80;;;;;;4937384;29;20035;-75
2023/03/29 09:06:22;;;;;;;6.05;2.50;;;9.80;67.60;;;;;;4937306;29;20027;-72
2023/03/29 09:08:52;;;;;;;5.47;2.80;;;9.50;68.40;;;;;;4936913;29;20042;-70
2023/03/29 09:11:25;;;;;;;3.10;2.10;;;9.90;71.30;;;;;;4937254;29;20365;-71
2023/03/29 09:14:07;;;;;;;5.97;2.30;;;10.20;68.40;;;;;;4936833;29;20519;-74
2023/03/29 09:16:39;;;;;;;6.60;2.80;;;10.40;72.20;;;;;;4936810;29;20031;-73
2023/03/29 09:19:31;;;;;;;4.65;2.72;;;10.60;68.20;;;;;;4936992;29;20034;-72
2023/03/29 09:22:28;;;;;;;5.72;2.95;;;10.60;68.90;;;;;;4936657;28;20373;-71
2023/03/29 09:25:25;;;;;;;4.32;2.58;;;10.60;68.30;;;;;;4933197;29;20151;-73
2023/03/29 09:28:04;;;;;;;4.30;2.55;;;10.50;67.80;;;;;;4927146;29;20118;-73
2023/03/29 09:31:14;;;;;;;6.05;2.50;;;10.90;69.10;;;;;;4956737;28;20525;-73
2023/03/29 09:33:49;;;;;;;8.23;2.55;;;10.50;66.30;;;;;;4956508;28;20073;-74
2023/03/29 09:36:28;;;;;;;4.32;2.22;;;10.50;67.20;;;;;;4956155;28;20023;-73
2023/03/29 09:38:55;;;;;;;3.53;2.38;;;10.80;67.40;;;;;;4944340;29;20958;-73
2023/03/29 09:41:40;;;;;;;5.13;2.03;;;10.90;67.40;;;;;;4955993;28;20442;-74
2023/03/29 09:44:16;;;;;;;5.03;2.67;;;10.80;66.60;;;;;;4954922;28;20030;-72
2023/03/29 09:47:06;;;;;;;6.38;2.30;;;11.00;66.50;;;;;;4951893;28;20553;-73
2023/03/29 09:49:42;;;;;;;4.75;2.30;;;10.90;63.00;;;;;;4956004;28;20047;-72
2023/03/29 09:52:13;;;;;;;8.07;2.58;;;11.10;63.40;;;;;;4971769;28;20030;-72
2023/03/29 09:54:43;;;;;;;3.67;1.75;;;11.20;66.70;;;;;;4955505;28;20033;-73
2023/03/29 09:57:20;;;;;;;5.70;2.72;;;11.30;66.90;;;;;;4973481;28;20027;-74
2023/03/29 09:59:50;;;;;;;5.18;2.33;;;11.20;67.20;;;;;;4956140;28;20503;-72
2023/03/29 10:02:19;;;;;;;4.68;2.03;;;11.20;65.00;;;;;;4954460;28;20034;-73
2023/03/29 10:04:57;;;;;;;8.10;3.10;;;11.20;64.10;;;;;;4955455;28;20027;-74
2023/03/29 10:07:33;;;;;;;3.40;2.03;;;11.20;70.10;;;;;;4970416;28;20069;-73
2023/03/29 10:10:00;;;;;;;7.50;2.25;;;11.10;66.20;;;;;;4956010;28;20053;-73
2023/03/29 10:12:26;;;;;;;4.70;2.00;;;11.30;64.30;;;;;;4971624;28;20025;-72
2023/03/29 10:14:53;;;;;;;9.73;2.75;;;11.20;62.70;;;;;;4973693;28;20033;-73
2023/03/29 10:17:21;;;;;;;8.73;2.33;;;11.40;66.00;;;;;;4971923;28;20109;-73
2023/03/29 10:19:50;;;;;;;6.60;2.50;;;11.70;65.00;;;;;;4970152;28;20081;-72
2023/03/29 10:22:26;;;;;;;3.33;2.15;;;11.80;64.20;;;;;;4973368;28;20053;-73
2023/03/29 10:24:56;;;;;;;4.78;2.47;;;11.30;64.60;;;;;;4973044;28;20427;-73
2023/03/29 10:27:25;;;;;;;7.32;2.90;;;11.20;68.80;;;;;;4971486;28;20089;-72
2023/03/29 10:29:52;;;;;;;6.65;2.80;;;11.50;67.50;;;;;;4971801;28;20039;-73
2023/03/29 10:32:22;;;;;;;5.32;2.33;;;11.20;67.60;;;;;;4971559;28;20034;-72
2023/03/29 10:34:50;;;;;;;3.33;1.90;;;11.40;64.90;;;;;;4972116;28;20480;-72
2023/03/29 10:37:18;;;;;;;5.18;2.95;;;11.60;67.70;;;;;;4965091;28;20019;-73
2023/03/29 10:39:46;;;;;;;6.75;2.65;;;11.50;67.10;;;;;;4973267;28;20031;-72
2023/03/29 10:42:17;;;;;;;3.60;2.33;;;11.80;71.20;;;;;;4972809;28;20049;-73
2023/03/29 10:44:55;;;;;;;4.40;2.70;;;12.30;68.10;;;;;;4970318;28;20041;-72
2023/03/29 10:47:22;;;;;;;4.63;2.05;;;12.20;65.40;;;;;;4972332;28;20463;-74
2023/03/29 10:49:52;;;;;;;6.05;2.70;;;12.00;67.10;;;;;;4966791;28;20071;-72
2023/03/29 10:52:20;;;;;;;6.90;3.20;;;11.90;67.90;;;;;;4969785;28;20113;-71
2023/03/29 10:54:47;;;;;;;5.80;2.92;;;12.00;67.10;;;;;;4981624;28;20050;-73
2023/03/29 10:57:25;;;;;;;5.88;2.45;;;11.90;66.50;;;;;;4972335;28;20027;-73
2023/03/29 10:59:56;;;;;;;3.78;2.28;;;11.80;66.50;;;;;;4971797;28;20545;-72
2023/03/29 11:03:09;;;;;;;5.93;2.47;;;12.00;67.60;;;;;;4966707;28;20033;-73
2023/03/29 11:06:09;;;;;;;4.77;2.53;;;11.90;69.10;;;;;;4971273;28;20046;-73
2023/03/29 11:08:51;;;;;;;5.70;2.78;;;12.30;70.10;;;;;;4972437;28;20292;-72
2023/03/29 11:11:51;;;;;;;8.88;3.53;;;12.40;69.00;;;;;;4974968;28;20035;-72
2023/03/29 11:14:53;;;;;;;5.70;2.70;;;12.20;67.70;;;;;;4967496;28;20030;-73
2023/03/29 11:17:29;;;;;;;7.43;3.30;;;12.20;69.20;;;;;;4973138;28;20043;-72
2023/03/29 11:20:16;;;;;;;4.25;2.25;;;12.10;68.40;;;;;;4976230;28;20443;-73
2023/03/29 11:23:16;;;;;;;3.83;2.33;;;12.20;66.90;;;;;;4975964;28;20114;-73
2023/03/29 11:26:06;;;;;;;3.92;2.50;;;12.20;66.40;;;;;;4976433;28;20027;-73
2023/03/29 11:29:01;;;;;;;5.95;2.95;;;12.40;68.20;;;;;;4967107;28;20039;-71
2023/03/29 11:31:30;;;;;;;6.63;2.90;;;12.80;68.50;;;;;;4976812;28;20360;-73
2023/03/29 11:34:15;;;;;;;4.82;2.25;;;12.80;65.90;;;;;;4972558;28;20426;-72
2023/03/29 11:37:16;;;;;;;6.47;2.50;;;12.40;64.20;;;;;;4963933;28;20030;-72
2023/03/29 11:39:51;;;;;;;7.65;2.50;;;12.20;66.50;;;;;;4971450;28;20042;-73
2023/03/29 11:42:27;;;;;;;4.93;2.53;;;12.50;67.10;;;;;;4966562;28;20057;-72
2023/03/29 11:44:56;;;;;;;5.35;2.95;;;12.30;68.50;;;;;;4963507;28;20038;-74
2023/03/29 11:47:26;;;;;;;7.63;2.20;;;12.30;68.80;;;;;;4970727;28;20028;-73
2023/03/29 11:50:06;;;;;;;7.28;2.78;;;12.50;66.70;;;;;;4973422;28;20035;-72
2023/03/29 11:52:41;;;;;;;5.18;2.75;;;12.60;67.90;;;;;;4975988;28;20034;-71
2023/03/29 11:55:18;;;;;;;7.72;2.55;;;12.40;67.50;;;;;;4976292;28;20501;-73
2023/03/29 11:58:33;;;;;;;5.25;2.45;;;12.60;68.30;;;;;;4975689;28;20045;-73
2023/03/29 12:01:15;;;;;;;5.30;2.63;;;12.70;66.40;;;;;;4897368;29;20048;-73
2023/03/29 12:03:52;;;;;;;7.72;2.55;;;12.80;67.10;;;;;;4897338;29;20064;-73
2023/03/29 12:06:24;;;;;;;5.65;3.00;;;12.80;62.30;;;;;;4897600;29;20504;-72
2023/03/29 12:09:12;;;;;;;6.88;2.88;;;12.70;64.60;;;;;;4897313;29;20048;-71
2023/03/29 12:11:46;;;;;;;5.40;3.08;;;12.80;63.70;;;;;;4897061;29;20250;-73
2023/03/29 12:14:21;;;;;;;11.10;2.83;;;12.90;65.20;;;;;;4897036;29;20047;-71
2023/03/29 12:16:53;;;;;;;4.57;2.10;;;12.80;66.00;;;;;;4888972;29;20544;-71
2023/03/29 12:19:48;;;;;;;4.20;2.42;;;12.60;66.30;;;;;;4896375;29;20116;-71
2023/03/29 12:22:15;;;;;;;3.92;1.90;;;12.80;65.20;;;;;;4819944;29;20087;-73
2023/03/29 12:24:47;;;;;;;4.80;2.05;;;12.50;63.60;;;;;;4822581;29;20099;-72
2023/03/29 12:27:36;;;;;;;5.68;2.10;;;12.60;62.00;;;;;;4822401;29;20038;-72
2023/03/29 12:30:05;;;;;;;4.80;2.20;;;12.60;63.90;;;;;;4786579;30;20496;-73
2023/03/29 12:33:04;;;;;;;7.15;2.63;;;12.60;63.60;;;;;;4784903;30;20062;-73
2023/03/29 12:36:07;;;;;;;6.40;2.30;;;12.60;65.50;;;;;;4784869;29;20074;-73
2023/03/29 12:38:52;;;;;;;5.53;2.67;;;12.40;65.20;;;;;;4820688;29;20041;-73
2023/03/29 12:41:40;;;;;;;5.65;2.33;;;12.40;66.60;;;;;;4820716;29;20576;-71
2023/03/29 12:44:32;;;;;;;7.07;2.47;;;12.60;65.00;;;;;;4817952;29;20043;-70
2023/03/29 12:47:25;;;;;;;5.95;2.97;;;12.60;68.10;;;;;;4821944;29;20073;-72
2023/03/29 12:49:59;;;;;;;6.95;3.13;;;12.80;65.60;;;;;;4820682;29;20038;-71
2023/03/29 12:52:28;;;;;;;6.32;2.40;;;12.60;62.70;;;;;;4822336;29;20057;-71
2023/03/29 12:54:57;;;;;;;8.73;4.28;;;12.60;62.40;;;;;;4823496;29;20057;-71
2023/03/29 12:57:38;;;;;;;11.82;3.67;;;12.50;68.60;;;;;;4819198;29;20484;-71
2023/03/29 13:00:21;;;;;;;6.57;2.67;;;12.60;65.50;;;;;;4890769;29;20052;-74
2023/03/29 13:03:19;;;;;;;5.35;2.50;;;12.80;67.50;;;;;;4896397;29;20449;-73
2023/03/29 13:05:45;;;;;;;8.23;3.55;;;13.00;66.90;;;;;;4843392;29;20442;-71
2023/03/29 13:08:33;;;;;;;4.18;2.22;;;13.20;64.80;;;;;;4912981;29;20077;-72
2023/03/29 13:11:00;;;;;;;6.22;2.28;;;13.50;66.70;;;;;;4898851;29;20234;-71
2023/03/29 13:13:44;;;;;;;8.35;3.05;;;13.50;64.20;;;;;;4914688;29;20680;-70
2023/03/29 13:16:18;;;;;;;7.57;2.80;;;13.60;65.40;;;;;;4914591;29;20385;-73
2023/03/29 13:19:07;;;;;;;7.47;2.53;;;13.30;68.20;;;;;;4914916;29;20087;-72
2023/03/29 13:22:09;;;;;;;5.80;2.65;;;13.40;67.00;;;;;;4914406;29;20181;-71
2023/03/29 13:24:44;;;;;;;6.63;3.00;;;13.40;67.50;;;;;;4913873;29;20032;-73
2023/03/29 13:27:35;;;;;;;5.03;2.63;;;12.90;66.60;;;;;;4927728;29;20032;-70
2023/03/29 13:30:15;;;;;;;5.43;2.80;;;12.90;66.00;;;;;;4919750;29;20594;-72
2023/03/29 13:33:22;;;;;;;4.55;2.47;;;13.00;69.90;;;;;;4914058;29;20039;-71
2023/03/29 13:36:02;;;;;;;5.30;2.50;;;12.90;66.40;;;;;;4907100;29;20036;-72
2023/03/29 13:38:30;;;;;;;6.05;2.20;;;12.80;66.20;;;;;;4913546;29;20036;-71